Harmony Sp — 3FWE6 — position and weather

sailwx.info

Track history (hours):
 
Tides and Currents Weather Stations Pressure Air Temp Water Temp Dewpoint Dewpoint Depression Visibility Wind Speed Wind Dir Waves Ship Positions

Harmony Sp

Last reported at 2016-May-02 09:32 UTC. Time now 2016-May-03 08:41 UTC.
Position N 37°10' E 026°31'.

MMSI: 353359712.

Date/timePositionNaut miles runAvg speedWind from/ knotsBaromVisibWave heightAir tempDewpointWater temp
2016-May-02 09:32N 37°10' E 026°31'242 6.9
2016-Apr-30 22:23N 40°43' E 028°59'1010.6
2016-Apr-30 21:27N 40°44' E 029°12'9 9.9
2016-Apr-30 20:33N 40°45' E 029°24'  
2016-Apr-27 18:33N 40°44' E 029°26'10 9.8
2016-Apr-27 17:33N 40°43' E 029°13'1111.0
2016-Apr-27 16:33N 40°40' E 028°59'15 5.1
2016-Apr-27 13:33N 40°25' E 029°05'0 0.2
2016-Apr-27 12:33N 40°25' E 029°05'0 0.0
2016-Apr-27 11:32N 40°25' E 029°05'0 0.0
2016-Apr-27 10:32N 40°25' E 029°05'0 0.0
2016-Apr-27 09:33N 40°25' E 029°05'0 0.0
2016-Apr-27 08:33N 40°25' E 029°05'0 0.0
2016-Apr-27 07:33N 40°25' E 029°05'0 0.0
2016-Apr-27 06:33N 40°25' E 029°05'0 0.0
2016-Apr-27 05:33N 40°25' E 029°05'0 0.0
2016-Apr-27 04:33N 40°25' E 029°05'0 0.0
2016-Apr-27 03:34N 40°25' E 029°05'0 0.0
2016-Apr-27 02:34N 40°25' E 029°05'0 0.0
2016-Apr-27 01:34N 40°25' E 029°05'0 0.0
2016-Apr-27 00:34N 40°25' E 029°05'0 0.0
2016-Apr-26 23:32N 40°25' E 029°05'0 0.0
2016-Apr-26 22:32N 40°25' E 029°05'0 0.0
2016-Apr-26 21:33N 40°25' E 029°05'0 0.0
2016-Apr-26 20:32N 40°25' E 029°05'0 0.0
2016-Apr-26 19:34N 40°25' E 029°05'0 0.0
2016-Apr-26 18:33N 40°25' E 029°05'0 0.0
2016-Apr-26 17:34N 40°25' E 029°05'0 0.0
2016-Apr-26 16:33N 40°25' E 029°05'0 0.0
2016-Apr-26 15:34N 40°25' E 029°05'0 0.0
2016-Apr-26 14:32N 40°25' E 029°05'0 0.0
2016-Apr-26 13:33N 40°25' E 029°05'0 0.0
2016-Apr-26 12:34N 40°25' E 029°05'0 0.0
2016-Apr-26 11:33N 40°25' E 029°05'0 0.0
2016-Apr-26 10:34N 40°25' E 029°05'0 0.0
2016-Apr-26 09:32N 40°25' E 029°05'0 0.0
2016-Apr-26 08:33N 40°25' E 029°05'0 0.0
2016-Apr-26 07:32N 40°25' E 029°05'0 0.0
2016-Apr-26 06:31N 40°25' E 029°05'0 0.0
2016-Apr-25 17:34N 40°25' E 029°05'24 0.6
2016-Apr-24 01:04N 40°47' E 028°52'5 9.1
2016-Apr-24 00:33N 40°51' E 028°55'  
Track history (hours):
 
Tides and Currents Weather Stations Pressure Air Temp Water Temp Dewpoint Dewpoint Depression Visibility Wind Speed Wind Dir Waves Ship Positions

Harmony Sp

Last reported at 2016-May-02 09:32 UTC. Time now 2016-May-03 08:41 UTC.
Position N 37°10' E 026°31'.

MMSI: 353359712.

Date/timePositionNaut miles runAvg speedWind from/ knotsBaromVisibWave heightAir tempDewpointWater temp
2016-May-02 09:32N 37°10' E 026°31'242 6.9
2016-Apr-30 22:23N 40°43' E 028°59'1010.6
2016-Apr-30 21:27N 40°44' E 029°12'9 9.9
2016-Apr-30 20:33N 40°45' E 029°24'  
2016-Apr-27 18:33N 40°44' E 029°26'10 9.8
2016-Apr-27 17:33N 40°43' E 029°13'1111.0
2016-Apr-27 16:33N 40°40' E 028°59'15 5.1
2016-Apr-27 13:33N 40°25' E 029°05'0 0.2
2016-Apr-27 12:33N 40°25' E 029°05'0 0.0
2016-Apr-27 11:32N 40°25' E 029°05'0 0.0
2016-Apr-27 10:32N 40°25' E 029°05'0 0.0
2016-Apr-27 09:33N 40°25' E 029°05'0 0.0
2016-Apr-27 08:33N 40°25' E 029°05'0 0.0
2016-Apr-27 07:33N 40°25' E 029°05'0 0.0
2016-Apr-27 06:33N 40°25' E 029°05'0 0.0
2016-Apr-27 05:33N 40°25' E 029°05'0 0.0
2016-Apr-27 04:33N 40°25' E 029°05'0 0.0
2016-Apr-27 03:34N 40°25' E 029°05'0 0.0
2016-Apr-27 02:34N 40°25' E 029°05'0 0.0
2016-Apr-27 01:34N 40°25' E 029°05'0 0.0
2016-Apr-27 00:34N 40°25' E 029°05'0 0.0
2016-Apr-26 23:32N 40°25' E 029°05'0 0.0
2016-Apr-26 22:32N 40°25' E 029°05'0 0.0
2016-Apr-26 21:33N 40°25' E 029°05'0 0.0
2016-Apr-26 20:32N 40°25' E 029°05'0 0.0
2016-Apr-26 19:34N 40°25' E 029°05'0 0.0
2016-Apr-26 18:33N 40°25' E 029°05'0 0.0
2016-Apr-26 17:34N 40°25' E 029°05'0 0.0
2016-Apr-26 16:33N 40°25' E 029°05'0 0.0
2016-Apr-26 15:34N 40°25' E 029°05'0 0.0
2016-Apr-26 14:32N 40°25' E 029°05'0 0.0
2016-Apr-26 13:33N 40°25' E 029°05'0 0.0
2016-Apr-26 12:34N 40°25' E 029°05'0 0.0
2016-Apr-26 11:33N 40°25' E 029°05'0 0.0
2016-Apr-26 10:34N 40°25' E 029°05'0 0.0
2016-Apr-26 09:32N 40°25' E 029°05'0 0.0
2016-Apr-26 08:33N 40°25' E 029°05'0 0.0
2016-Apr-26 07:32N 40°25' E 029°05'0 0.0
2016-Apr-26 06:31N 40°25' E 029°05'0 0.0
2016-Apr-25 17:34N 40°25' E 029°05'24 0.6
2016-Apr-24 01:04N 40°47' E 028°52'5 9.1
2016-Apr-24 00:33N 40°51' E 028°55'  

Dump ship's entire track history